createdAt,value
2023-03-06T00:02:25.295Z,101048.06
2023-03-06T00:04:53.231Z,101034.63
2023-03-06T00:07:19.747Z,101032.19
2023-03-06T00:09:46.253Z,101030.78
2023-03-06T00:12:12.854Z,101031.75
2023-03-06T00:14:39.384Z,101022.69
2023-03-06T00:17:05.906Z,101021.63
2023-03-06T00:19:32.485Z,101025.38
2023-03-06T00:21:59.005Z,101023.94
2023-03-06T00:24:25.464Z,101022.47
2023-03-06T00:26:52.013Z,101014.25
2023-03-06T00:29:18.540Z,101006.50
2023-03-06T00:31:47.895Z,101004.28
2023-03-06T00:34:15.013Z,101008.22
2023-03-06T00:36:41.893Z,101002.03
2023-03-06T00:39:08.420Z,101004.19
2023-03-06T00:41:34.936Z,100998.34
2023-03-06T00:44:01.442Z,100992.34
2023-03-06T00:46:28.015Z,100985.53
2023-03-06T00:48:54.544Z,100975.31
2023-03-06T00:51:21.735Z,100973.19
2023-03-06T00:53:48.677Z,100973.03
2023-03-06T00:56:15.183Z,100964.59
2023-03-06T00:58:41.675Z,100961.38
2023-03-06T01:01:08.401Z,100959.75
2023-03-06T01:03:34.885Z,100962.81
2023-03-06T01:06:01.486Z,100955.81
2023-03-06T01:08:27.980Z,100951.91
2023-03-06T01:10:54.550Z,100948.31
2023-03-06T01:13:21.153Z,100952.34
2023-03-06T01:15:47.795Z,100945.53
2023-03-06T01:18:15.292Z,100946.16
2023-03-06T01:20:42.140Z,100934.97
2023-03-06T01:23:08.636Z,100934.19
2023-03-06T01:25:35.200Z,100932.56
2023-03-06T01:28:01.805Z,100933.53
2023-03-06T01:30:28.357Z,100937.31
2023-03-06T01:32:54.838Z,100932.91
2023-03-06T01:35:21.335Z,100943.47
2023-03-06T01:37:47.775Z,100934.59
2023-03-06T01:40:14.599Z,100934.94
2023-03-06T01:42:41.947Z,100940.50
2023-03-06T01:45:11.412Z,100936.28
2023-03-06T01:47:37.893Z,100938.88
2023-03-06T01:50:07.104Z,100945.56
2023-03-06T01:52:40.084Z,100936.34
2023-03-06T01:55:14.403Z,100927.47
2023-03-06T01:57:44.924Z,100929.00
2023-03-06T02:00:19.292Z,100925.75
2023-03-06T02:02:53.193Z,100923.34
2023-03-06T02:05:19.800Z,100918.50
2023-03-06T02:07:48.249Z,100910.88
2023-03-06T02:10:15.981Z,100908.94
2023-03-06T02:12:46.310Z,100901.16
2023-03-06T02:15:14.767Z,100901.31
2023-03-06T02:17:43.977Z,100903.28
2023-03-06T02:20:20.855Z,100900.03
2023-03-06T02:23:02.372Z,100898.59
2023-03-06T02:25:37.228Z,100906.22
2023-03-06T02:28:06.067Z,100901.19
2023-03-06T02:30:33.406Z,100896.34
2023-03-06T02:33:00.308Z,100894.41
2023-03-06T02:35:32.790Z,100895.84
2023-03-06T02:38:04.731Z,100887.72
2023-03-06T02:40:31.283Z,100885.56
2023-03-06T02:42:58.671Z,100882.97
2023-03-06T02:45:40.648Z,100882.63
2023-03-06T02:48:07.612Z,100877.53
2023-03-06T02:50:34.137Z,100879.41
2023-03-06T02:53:00.703Z,100872.72
2023-03-06T02:55:27.518Z,100863.41
2023-03-06T02:57:54.036Z,100865.13
2023-03-06T03:00:20.795Z,100856.81
2023-03-06T03:02:47.330Z,100850.28
2023-03-06T03:05:14.296Z,100843.28
2023-03-06T03:07:41.007Z,100844.53
2023-03-06T03:10:08.427Z,100839.78
2023-03-06T03:12:35.008Z,100843.97
2023-03-06T03:15:01.555Z,100839.25
2023-03-06T03:17:28.635Z,100829.47
2023-03-06T03:19:55.238Z,100823.28
2023-03-06T03:22:21.724Z,100821.31
2023-03-06T03:24:48.300Z,100817.75
2023-03-06T03:27:15.343Z,100813.16
2023-03-06T03:29:42.718Z,100816.56
2023-03-06T03:32:09.921Z,100811.03
2023-03-06T03:34:36.412Z,100805.66
2023-03-06T03:37:02.965Z,100808.06
2023-03-06T03:39:29.475Z,100805.09
2023-03-06T03:41:55.998Z,100806.53
2023-03-06T03:44:22.651Z,100802.16
2023-03-06T03:46:49.319Z,100802.78
2023-03-06T03:49:16.024Z,100798.97
2023-03-06T03:51:42.551Z,100791.81
2023-03-06T03:54:09.012Z,100795.03
2023-03-06T03:56:35.554Z,100785.06
2023-03-06T03:59:02.412Z,100783.91
2023-03-06T04:01:29.085Z,100790.53
2023-03-06T04:03:55.652Z,100786.75
2023-03-06T04:06:22.242Z,100794.19
2023-03-06T04:08:48.853Z,100782.81
2023-03-06T04:11:15.887Z,100780.03
2023-03-06T04:13:42.388Z,100782.44
2023-03-06T04:16:08.972Z,100778.84
2023-03-06T04:18:35.638Z,100772.66
2023-03-06T04:21:02.121Z,100778.66
2023-03-06T04:23:28.847Z,100769.88
2023-03-06T04:25:55.415Z,100773.28
2023-03-06T04:28:21.977Z,100767.28
2023-03-06T04:30:48.488Z,100756.69
2023-03-06T04:33:15.309Z,100763.31
2023-03-06T04:35:41.825Z,100764.13
2023-03-06T04:38:08.584Z,100755.94
2023-03-06T04:40:36.592Z,100758.53
2023-03-06T04:43:04.197Z,100755.75
2023-03-06T04:45:32.346Z,100757.16
2023-03-06T04:47:59.345Z,100745.97
2023-03-06T04:50:28.171Z,100749.38
2023-03-06T04:52:54.728Z,100749.81
2023-03-06T04:55:21.391Z,100747.03
2023-03-06T04:57:48.484Z,100742.44
2023-03-06T05:00:21.103Z,100743.25
2023-03-06T05:02:48.812Z,100745.66
2023-03-06T05:05:16.486Z,100746.09
2023-03-06T05:07:43.342Z,100745.72
2023-03-06T05:10:15.700Z,100741.94
2023-03-06T05:12:42.858Z,100745.53
2023-03-06T05:15:10.754Z,100739.16
2023-03-06T05:17:37.872Z,100740.38
2023-03-06T05:20:07.433Z,100738.41
2023-03-06T05:22:34.937Z,100732.03
2023-03-06T05:25:01.835Z,100737.00
2023-03-06T05:27:29.039Z,100741.22
2023-03-06T05:29:55.718Z,100736.63
2023-03-06T05:32:22.913Z,100729.63
2023-03-06T05:34:50.180Z,100728.66
2023-03-06T05:37:16.892Z,100727.03
2023-03-06T05:39:43.700Z,100724.44
2023-03-06T05:42:10.449Z,100720.03
2023-03-06T05:44:38.025Z,100723.81
2023-03-06T05:47:04.809Z,100728.44
2023-03-06T05:49:33.695Z,100716.78
2023-03-06T05:52:01.299Z,100722.19
2023-03-06T05:54:27.795Z,100717.53
2023-03-06T05:56:54.336Z,100715.31
2023-03-06T05:59:20.806Z,100716.69
2023-03-06T06:01:47.269Z,100719.03
2023-03-06T06:04:13.773Z,100715.00
2023-03-06T06:06:40.529Z,100718.41
2023-03-06T06:09:07.053Z,100721.38
2023-03-06T06:11:33.550Z,100729.19
2023-03-06T06:14:00.088Z,100731.41
2023-03-06T06:16:26.615Z,100742.81
2023-03-06T06:18:53.089Z,100738.22
2023-03-06T06:21:19.583Z,100734.44
2023-03-06T06:23:46.221Z,100744.28
2023-03-06T06:26:12.705Z,100743.75
2023-03-06T06:28:39.201Z,100745.59
2023-03-06T06:31:13.194Z,100739.44
2023-03-06T06:33:40.961Z,100744.06
2023-03-06T06:36:18.910Z,100741.91
2023-03-06T06:38:45.488Z,100743.94
2023-03-06T06:41:36.000Z,100740.16
2023-03-06T06:43:59.377Z,100741.38
2023-03-06T06:47:14.338Z,100740.19
2023-03-06T06:49:13.826Z,100739.25
2023-03-06T06:51:41.271Z,100739.66
2023-03-06T06:54:08.717Z,100739.09
2023-03-06T06:56:35.442Z,100745.13
2023-03-06T06:59:15.557Z,100743.56
2023-03-06T07:01:43.544Z,100738.78
2023-03-06T07:04:14.844Z,100742.63
2023-03-06T07:06:42.557Z,100749.06
2023-03-06T07:09:09.382Z,100750.66
2023-03-06T07:11:37.872Z,100751.47
2023-03-06T07:14:04.466Z,100751.28
2023-03-06T07:16:30.964Z,100757.28
2023-03-06T07:18:57.587Z,100757.28
2023-03-06T07:21:24.380Z,100763.13
2023-03-06T07:23:50.887Z,100757.34
2023-03-06T07:26:17.385Z,100757.75
2023-03-06T07:28:52.266Z,100758.56
2023-03-06T07:31:25.733Z,100764.56
2023-03-06T07:33:53.789Z,100765.78
2023-03-06T07:36:22.500Z,100765.41
2023-03-06T07:38:49.213Z,100760.84
2023-03-06T07:41:16.568Z,100763.25
2023-03-06T07:43:44.865Z,100763.28
2023-03-06T07:46:12.776Z,100755.88
2023-03-06T07:48:40.427Z,100765.13
2023-03-06T07:51:27.355Z,100759.72
2023-03-06T07:53:54.231Z,100761.13
2023-03-06T07:56:20.933Z,100764.56
2023-03-06T07:58:48.137Z,100763.56
2023-03-06T08:01:17.689Z,100765.38
2023-03-06T08:03:44.243Z,100768.03
2023-03-06T08:06:19.428Z,100759.00
2023-03-06T08:08:47.269Z,100761.59
2023-03-06T08:11:15.940Z,100759.41
2023-03-06T08:13:43.038Z,100760.41
2023-03-06T08:16:10.484Z,100758.59
2023-03-06T08:18:39.548Z,100766.63
2023-03-06T08:21:07.706Z,100759.59
2023-03-06T08:23:35.229Z,100759.81
2023-03-06T08:26:07.717Z,100766.44
2023-03-06T08:28:34.612Z,100758.41
2023-03-06T08:31:12.958Z,100757.81
2023-03-06T08:33:40.826Z,100756.00
2023-03-06T08:36:07.675Z,100768.25
2023-03-06T08:38:34.211Z,100755.41
2023-03-06T08:41:00.872Z,100758.63
2023-03-06T08:43:27.520Z,100757.22
2023-03-06T08:45:55.431Z,100760.59
2023-03-06T08:48:21.923Z,100758.59
2023-03-06T08:50:49.067Z,100761.81
2023-03-06T08:53:15.600Z,100763.59
2023-03-06T08:55:42.251Z,100756.53
2023-03-06T08:58:08.973Z,100760.75
2023-03-06T09:00:36.681Z,100751.69
2023-03-06T09:03:03.859Z,100757.28
2023-03-06T09:05:30.502Z,100755.44
2023-03-06T09:07:57.049Z,100751.00
2023-03-06T09:10:25.170Z,100759.25
2023-03-06T09:12:54.729Z,100749.53
2023-03-06T09:15:22.144Z,100753.38
2023-03-06T09:17:48.688Z,100757.44
2023-03-06T09:20:15.834Z,100762.88
2023-03-06T09:22:42.538Z,100755.44
2023-03-06T09:25:11.095Z,100758.69
2023-03-06T09:27:37.636Z,100756.66
2023-03-06T09:30:04.849Z,100759.06
2023-03-06T09:32:31.373Z,100750.56
2023-03-06T09:34:57.866Z,100746.72
2023-03-06T09:37:24.622Z,100747.75
2023-03-06T09:39:51.245Z,100747.72
2023-03-06T09:42:21.390Z,100749.81
2023-03-06T09:44:55.981Z,100739.25
2023-03-06T09:47:49.378Z,100748.09
2023-03-06T09:50:26.393Z,100745.97
2023-03-06T09:53:15.417Z,100755.84
2023-03-06T09:55:50.221Z,100752.25
2023-03-06T09:58:22.012Z,100751.72
2023-03-06T10:01:12.663Z,100755.13
2023-03-06T10:03:48.546Z,100749.78
2023-03-06T10:06:25.089Z,100753.09
2023-03-06T10:09:14.514Z,100751.34
2023-03-06T10:11:56.565Z,100755.47
2023-03-06T10:14:41.625Z,100756.03
2023-03-06T10:17:17.731Z,100749.84
2023-03-06T10:19:47.596Z,100752.34
2023-03-06T10:22:20.383Z,100744.97
2023-03-06T10:25:20.439Z,100748.94
2023-03-06T10:27:57.501Z,100744.69
2023-03-06T10:30:38.853Z,100747.97
2023-03-06T10:33:11.315Z,100747.66
2023-03-06T10:35:53.255Z,100743.59
2023-03-06T10:38:31.887Z,100734.09
2023-03-06T10:41:29.785Z,100741.28
2023-03-06T10:44:05.470Z,100739.31
2023-03-06T10:46:37.538Z,100741.94
2023-03-06T10:49:23.540Z,100741.88
2023-03-06T10:52:06.770Z,100740.75
2023-03-06T10:54:39.764Z,100730.56
2023-03-06T10:57:30.902Z,100740.03
2023-03-06T11:00:20.659Z,100732.53
2023-03-06T11:02:47.233Z,100730.75
2023-03-06T11:05:20.978Z,100730.88
2023-03-06T11:07:57.048Z,100722.13
2023-03-06T11:10:24.430Z,100725.53
2023-03-06T11:13:10.416Z,100720.66
2023-03-06T11:15:36.976Z,100710.44
2023-03-06T11:18:04.990Z,100709.75
2023-03-06T11:20:51.615Z,100707.00
2023-03-06T11:23:22.263Z,100704.72
2023-03-06T11:25:54.890Z,100703.00
2023-03-06T11:28:30.484Z,100707.00
2023-03-06T11:31:09.756Z,100704.50
2023-03-06T11:33:51.632Z,100698.22
2023-03-06T11:36:36.193Z,100692.50
2023-03-06T11:39:29.797Z,100685.75
2023-03-06T11:42:10.929Z,100683.63
2023-03-06T11:45:13.580Z,100678.56
2023-03-06T11:47:49.237Z,100678.91
2023-03-06T11:50:31.022Z,100678.81
2023-03-06T11:53:00.033Z,100676.44
2023-03-06T11:55:29.497Z,100672.88
2023-03-06T11:58:23.820Z,100672.75
2023-03-06T12:00:54.741Z,100671.81
2023-03-06T12:03:49.028Z,100672.25
2023-03-06T12:06:15.477Z,100672.88
2023-03-06T12:08:51.408Z,100658.81
2023-03-06T12:11:30.698Z,100663.25
2023-03-06T12:14:36.111Z,100656.44
2023-03-06T12:17:13.094Z,100649.44
2023-03-06T12:19:52.086Z,100652.16
2023-03-06T12:22:41.311Z,100657.69
2023-03-06T12:25:27.868Z,100655.19
2023-03-06T12:28:19.231Z,100647.97
2023-03-06T12:31:09.556Z,100650.28
2023-03-06T12:33:59.261Z,100647.19
2023-03-06T12:36:42.580Z,100637.09
2023-03-06T12:39:26.048Z,100634.63
2023-03-06T12:42:02.504Z,100633.44
2023-03-06T12:45:04.238Z,100638.13
2023-03-06T12:47:36.407Z,100630.78
2023-03-06T12:50:13.770Z,100629.44
2023-03-06T12:52:41.656Z,100629.72
2023-03-06T12:55:16.579Z,100622.41
2023-03-06T12:57:43.323Z,100617.47
2023-03-06T13:00:35.179Z,100613.06
2023-03-06T13:03:30.419Z,100607.75
2023-03-06T13:06:20.847Z,100600.88
2023-03-06T13:09:09.336Z,100601.69
2023-03-06T13:12:24.987Z,100601.78
2023-03-06T13:14:54.896Z,100604.03
2023-03-06T13:17:28.507Z,100587.50
2023-03-06T13:20:13.427Z,100583.41
2023-03-06T13:22:42.278Z,100579.72
2023-03-06T13:25:21.147Z,100578.38
2023-03-06T13:28:03.273Z,100579.97
2023-03-06T13:30:38.869Z,100570.72
2023-03-06T13:33:26.763Z,100568.34
2023-03-06T13:35:59.058Z,100559.47
2023-03-06T13:38:33.536Z,100554.06
2023-03-06T13:41:25.031Z,100552.94
2023-03-06T13:43:54.028Z,100537.19
2023-03-06T13:46:25.801Z,100539.50
2023-03-06T13:49:07.637Z,100542.59
2023-03-06T13:51:40.221Z,100536.91
2023-03-06T13:54:44.131Z,100536.78
2023-03-06T13:57:29.905Z,100533.03
2023-03-06T14:00:15.278Z,100536.06
2023-03-06T14:02:55.109Z,100531.19
2023-03-06T14:05:22.867Z,100523.22
2023-03-06T14:08:15.840Z,100520.97
2023-03-06T14:10:45.112Z,100520.19
2023-03-06T14:13:22.198Z,100515.38
2023-03-06T14:15:51.715Z,100514.81
2023-03-06T14:18:25.596Z,100509.56
2023-03-06T14:20:59.390Z,100501.34
2023-03-06T14:23:29.073Z,100501.25
2023-03-06T14:26:07.744Z,100502.50
2023-03-06T14:28:35.389Z,100498.47
2023-03-06T14:31:04.432Z,100493.59
2023-03-06T14:33:36.875Z,100494.47
2023-03-06T14:36:08.219Z,100489.69
2023-03-06T14:38:42.261Z,100483.53
2023-03-06T14:41:11.796Z,100486.50
2023-03-06T14:43:39.512Z,100472.69
2023-03-06T14:46:06.919Z,100488.34
2023-03-06T14:48:45.375Z,100481.06
2023-03-06T14:51:33.272Z,100481.19
2023-03-06T14:54:02.168Z,100482.09
2023-03-06T14:56:30.385Z,100476.75
2023-03-06T14:59:01.221Z,100468.78
2023-03-06T15:01:31.398Z,100476.31
2023-03-06T15:04:00.359Z,100483.94
2023-03-06T15:06:33.425Z,100475.50
2023-03-06T15:09:21.616Z,100464.66
2023-03-06T15:12:01.448Z,100456.00
2023-03-06T15:14:37.320Z,100459.19
2023-03-06T15:17:16.005Z,100451.00
2023-03-06T15:19:42.949Z,100453.38
2023-03-06T15:22:30.288Z,100452.03
2023-03-06T15:25:20.286Z,100452.25
2023-03-06T15:27:57.526Z,100447.22
2023-03-06T15:30:26.841Z,100454.28
2023-03-06T15:33:29.003Z,100439.81
2023-03-06T15:36:01.777Z,100444.03
2023-03-06T15:38:46.027Z,100440.38
2023-03-06T15:41:28.596Z,100438.88
2023-03-06T15:43:55.220Z,100435.56
2023-03-06T15:46:21.728Z,100442.84
2023-03-06T15:48:55.943Z,100431.13
2023-03-06T15:51:23.270Z,100422.34
2023-03-06T15:53:50.281Z,100414.78
2023-03-06T15:56:21.412Z,100419.69
2023-03-06T15:58:48.132Z,100417.72
2023-03-06T16:01:17.482Z,100413.84
2023-03-06T16:03:45.091Z,100409.69
2023-03-06T16:06:26.068Z,100415.25
2023-03-06T16:08:53.140Z,100401.22
2023-03-06T16:11:35.427Z,100403.34
2023-03-06T16:14:18.881Z,100416.63
2023-03-06T16:16:45.815Z,100408.25
2023-03-06T16:19:25.919Z,100408.56
2023-03-06T16:21:53.582Z,100405.00
2023-03-06T16:24:20.195Z,100414.31
2023-03-06T16:26:50.973Z,100407.94
2023-03-06T16:29:19.980Z,100411.41
2023-03-06T16:31:46.642Z,100410.53
2023-03-06T16:34:14.045Z,100406.16
2023-03-06T16:36:41.013Z,100400.00
2023-03-06T16:39:16.895Z,100377.38
2023-03-06T16:41:44.921Z,100392.53
2023-03-06T16:44:12.330Z,100388.75
2023-03-06T16:46:41.590Z,100388.16
2023-03-06T16:49:12.619Z,100384.16
2023-03-06T16:51:40.459Z,100381.19
2023-03-06T16:54:06.947Z,100376.59
2023-03-06T16:56:33.412Z,100378.41
2023-03-06T16:58:59.937Z,100375.44
2023-03-06T17:01:26.568Z,100380.88
2023-03-06T17:03:53.088Z,100377.91
2023-03-06T17:06:21.797Z,100378.75
2023-03-06T17:08:49.468Z,100367.94
2023-03-06T17:11:17.045Z,100366.75
2023-03-06T17:13:44.301Z,100361.38
2023-03-06T17:16:18.798Z,100349.75
2023-03-06T17:18:46.307Z,100347.00
2023-03-06T17:21:15.678Z,100340.41
2023-03-06T17:23:42.784Z,100344.25
2023-03-06T17:26:20.405Z,100337.84
2023-03-06T17:28:47.620Z,100332.25
2023-03-06T17:31:19.952Z,100332.69
2023-03-06T17:33:46.743Z,100334.69
2023-03-06T17:36:16.800Z,100325.47
2023-03-06T17:38:43.745Z,100324.91
2023-03-06T17:41:10.972Z,100326.13
2023-03-06T17:43:38.636Z,100319.50
2023-03-06T17:46:10.918Z,100330.16
2023-03-06T17:48:37.663Z,100318.91
2023-03-06T17:51:04.979Z,100315.50
2023-03-06T17:53:31.821Z,100319.94
2023-03-06T17:55:58.543Z,100317.75
2023-03-06T17:58:26.023Z,100310.94
2023-03-06T18:00:52.998Z,100306.50
2023-03-06T18:03:19.433Z,100303.56
2023-03-06T18:05:45.979Z,100305.34
2023-03-06T18:08:12.472Z,100304.78
2023-03-06T18:10:43.439Z,100311.81
2023-03-06T18:13:10.879Z,100301.56
2023-03-06T18:15:41.371Z,100300.19
2023-03-06T18:18:08.900Z,100298.78
2023-03-06T18:20:41.166Z,100302.22
2023-03-06T18:23:07.815Z,100297.19
2023-03-06T18:25:34.298Z,100300.03
2023-03-06T18:28:00.904Z,100296.81
2023-03-06T18:30:27.655Z,100281.59
2023-03-06T18:32:54.569Z,100282.44
2023-03-06T18:35:21.687Z,100278.22
2023-03-06T18:37:48.430Z,100278.66
2023-03-06T18:40:15.264Z,100269.22
2023-03-06T18:42:42.163Z,100268.84
2023-03-06T18:45:09.719Z,100264.06
2023-03-06T18:47:36.366Z,100269.28
2023-03-06T18:50:03.205Z,100260.06
2023-03-06T18:52:29.798Z,100246.44
2023-03-06T18:54:56.367Z,100248.47
2023-03-06T18:57:22.955Z,100241.66
2023-03-06T18:59:49.534Z,100243.47
2023-03-06T19:02:16.004Z,100238.88
2023-03-06T19:04:42.467Z,100233.28
2023-03-06T19:07:09.022Z,100230.88
2023-03-06T19:09:35.620Z,100226.09
2023-03-06T19:12:03.485Z,100215.66
2023-03-06T19:14:30.169Z,100218.69
2023-03-06T19:16:56.838Z,100213.91
2023-03-06T19:19:26.276Z,100208.09
2023-03-06T19:21:53.728Z,100211.69
2023-03-06T19:24:20.191Z,100206.50
2023-03-06T19:26:46.823Z,100202.88
2023-03-06T19:29:13.422Z,100197.31
2023-03-06T19:31:40.014Z,100198.53
2023-03-06T19:34:06.582Z,100195.34
2023-03-06T19:36:34.276Z,100190.13
2023-03-06T19:39:03.914Z,100179.91
2023-03-06T19:41:30.814Z,100184.31
2023-03-06T19:44:02.198Z,100181.91
2023-03-06T19:46:29.024Z,100175.31
2023-03-06T19:49:00.765Z,100172.13
2023-03-06T19:51:28.373Z,100166.91
2023-03-06T19:53:57.446Z,100160.69
2023-03-06T19:56:27.610Z,100146.88
2023-03-06T19:58:54.926Z,100152.06
2023-03-06T20:01:24.778Z,100145.84
2023-03-06T20:04:00.420Z,100132.81
2023-03-06T20:06:36.762Z,100132.03
2023-03-06T20:09:08.356Z,100116.97
2023-03-06T20:11:34.836Z,100123.78
2023-03-06T20:14:03.361Z,100113.94
2023-03-06T20:16:30.698Z,100114.75
2023-03-06T20:18:58.966Z,100109.53
2023-03-06T20:21:26.724Z,100103.31
2023-03-06T20:23:54.860Z,100097.91
2023-03-06T20:26:21.437Z,100094.88
2023-03-06T20:28:48.221Z,100075.56
2023-03-06T20:31:17.820Z,100084.78
2023-03-06T20:33:50.215Z,100076.53
2023-03-06T20:36:19.909Z,100065.09
2023-03-06T20:38:47.038Z,100069.09
2023-03-06T20:41:26.007Z,100067.66
2023-03-06T20:43:53.099Z,100059.03
2023-03-06T20:46:21.433Z,100041.59
2023-03-06T20:48:50.611Z,100044.78
2023-03-06T20:51:18.594Z,100038.91
2023-03-06T20:53:47.451Z,100044.72
2023-03-06T20:56:15.786Z,100033.06
2023-03-06T20:58:42.760Z,100026.03
2023-03-06T21:01:09.289Z,100024.81
2023-03-06T21:03:35.760Z,100010.16
2023-03-06T21:06:02.382Z,100022.34
2023-03-06T21:08:28.905Z,100021.09
2023-03-06T21:10:55.365Z,100022.47
2023-03-06T21:13:21.834Z,100017.81
2023-03-06T21:15:49.119Z,100019.00
2023-03-06T21:18:15.702Z,100004.72
2023-03-06T21:20:42.352Z,99996.09
2023-03-06T21:23:09.190Z,99998.25
2023-03-06T21:25:36.247Z,99985.81
2023-03-06T21:28:03.139Z,99987.41
2023-03-06T21:30:29.819Z,99989.56
2023-03-06T21:32:56.391Z,99987.31
2023-03-06T21:35:22.936Z,99985.28
2023-03-06T21:37:49.541Z,99988.47
2023-03-06T21:40:16.191Z,99977.81
2023-03-06T21:42:42.752Z,99978.19
2023-03-06T21:45:09.655Z,99983.16
2023-03-06T21:47:40.904Z,99983.50
2023-03-06T21:50:09.626Z,99968.22
2023-03-06T21:52:36.234Z,99973.78
2023-03-06T21:55:02.909Z,99976.97
2023-03-06T21:57:29.518Z,99984.59
2023-03-06T21:59:56.121Z,99978.34
2023-03-06T22:02:22.847Z,99985.72
2023-03-06T22:04:52.047Z,99976.88
2023-03-06T22:07:19.479Z,99981.66
2023-03-06T22:09:46.247Z,99982.03
2023-03-06T22:12:12.762Z,99981.56
2023-03-06T22:14:39.337Z,99973.97
2023-03-06T22:17:05.851Z,99965.56
2023-03-06T22:19:32.607Z,99958.97
2023-03-06T22:21:59.216Z,99958.41
2023-03-06T22:24:25.762Z,99966.22
2023-03-06T22:26:52.413Z,99956.00
2023-03-06T22:29:18.905Z,99960.22
2023-03-06T22:31:45.518Z,99959.63
2023-03-06T22:34:12.086Z,99953.63
2023-03-06T22:36:38.717Z,99959.63
2023-03-06T22:39:05.286Z,99960.88
2023-03-06T22:41:32.024Z,99952.09
2023-03-06T22:44:00.683Z,99947.34
2023-03-06T22:46:27.724Z,99953.00
2023-03-06T22:48:59.290Z,99949.81
2023-03-06T22:51:27.449Z,99955.03
2023-03-06T22:53:54.036Z,99947.41
2023-03-06T22:56:21.752Z,99944.25
2023-03-06T22:58:48.669Z,99939.47
2023-03-06T23:01:27.219Z,99937.44
2023-03-06T23:03:56.418Z,99936.44
2023-03-06T23:06:24.308Z,99938.78
2023-03-06T23:08:57.394Z,99945.59
2023-03-06T23:11:25.467Z,99935.41
2023-03-06T23:13:53.247Z,99939.47
2023-03-06T23:16:20.128Z,99942.75
2023-03-06T23:18:46.871Z,99945.34
2023-03-06T23:21:16.125Z,99935.16
2023-03-06T23:23:44.266Z,99934.56
2023-03-06T23:26:13.473Z,99932.31
2023-03-06T23:28:40.989Z,99928.91
2023-03-06T23:31:20.660Z,99933.91
2023-03-06T23:33:48.189Z,99936.06
2023-03-06T23:36:16.910Z,99940.84
2023-03-06T23:38:44.008Z,99935.16
2023-03-06T23:41:13.499Z,99930.09
2023-03-06T23:43:40.311Z,99935.66
2023-03-06T23:46:07.721Z,99927.16
2023-03-06T23:48:35.839Z,99928.31
2023-03-06T23:51:12.892Z,99928.22
2023-03-06T23:53:39.445Z,99923.56
2023-03-06T23:56:06.877Z,99924.94
2023-03-06T23:58:33.601Z,99931.75
